Pierces Chapel, Texas
Current Conditions -  °F | °C
As of 2:35 AM on Friday 19 Dec 2014 (Local Time) from KJSO Reporting Station
Thunderstorm Thunderstorm  
Wind Chill: 45°   Ceiling: 200
Heat Index: 49°   Visibility: 0.5mi
Dew Point: 48°   Wind: 9mph
Humidity: 99%   Direction: 20°NNE
Pressure: 30.12"   Gusts: NA
Location:  31.9649°N, 95.3036°W
Report Text: KJSO 190835Z AUTO 02008KT 1/2SM VCTS FG OVC002 09/08 A3012 RMK AO2 LTG DSNT SE THRU W T00930091
Loading
Personal Weather Stations






























Interactive Weather Map New forecast layout! Learn more

10-Day Weather Forecast

Advertisements
Track Severe Weather on mobile